createdAt,value
2019-03-10T00:06:44.163Z,99792.25
2019-03-10T00:09:13.530Z,99792.16
2019-03-10T00:11:42.872Z,99794.90
2019-03-10T00:17:14.917Z,99798.84
2019-03-10T00:19:44.270Z,99799.30
2019-03-10T00:22:13.677Z,99795.87
2019-03-10T00:30:48.128Z,99800.21
2019-03-10T00:33:17.488Z,99799.06
2019-03-10T00:35:46.828Z,99800.77
2019-03-10T00:38:16.163Z,99802.66
2019-03-10T00:41:24.323Z,99805.03
2019-03-10T00:44:32.372Z,99798.88
2019-03-10T00:47:39.612Z,99795.95
2019-03-10T00:50:46.862Z,99785.56
2019-03-10T00:53:15.515Z,99781.86
2019-03-10T00:55:44.841Z,99779.74
2019-03-10T00:58:14.263Z,99775.98
2019-03-10T01:00:43.605Z,99770.26
2019-03-10T01:03:12.936Z,99766.25
2019-03-10T01:05:42.351Z,99767.23
2019-03-10T01:08:11.928Z,99770.05
2019-03-10T01:10:41.258Z,99771.42
2019-03-10T01:13:10.602Z,99772.23
2019-03-10T01:24:46.526Z,99764.87
2019-03-10T01:27:15.845Z,99772.43
2019-03-10T01:29:45.183Z,99768.28
2019-03-10T01:32:53.236Z,99760.35
2019-03-10T01:35:25.388Z,99760.58
2019-03-10T01:40:56.991Z,99750.98
2019-03-10T01:43:26.331Z,99753.43
2019-03-10T01:45:55.660Z,99750.48
2019-03-10T01:48:25.009Z,99758.20
2019-03-10T01:50:54.374Z,99746.59
2019-03-10T01:53:25.749Z,99744.50
2019-03-10T01:56:13.006Z,99759.75
2019-03-10T01:58:42.384Z,99756.77
2019-03-10T02:01:11.691Z,99752.64
2019-03-10T02:03:41.064Z,99762.70
2019-03-10T02:06:20.661Z,99760.48
2019-03-10T02:08:50.013Z,99755.16
2019-03-10T02:11:19.400Z,99759.83
2019-03-10T02:16:50.860Z,99755.23
2019-03-10T02:19:20.202Z,99759.55
2019-03-10T02:21:49.551Z,99759.31
2019-03-10T02:24:23.820Z,99764.08
2019-03-10T02:27:08.251Z,99765.23
2019-03-10T02:29:37.579Z,99766.11
2019-03-10T02:32:06.920Z,99765.05
2019-03-10T02:34:36.272Z,99765.08
2019-03-10T02:37:05.618Z,99766.66
2019-03-10T02:39:34.953Z,99771.93
2019-03-10T02:42:04.287Z,99765.94
2019-03-10T02:44:33.640Z,99767.08
2019-03-10T02:47:02.979Z,99767.20
2019-03-10T02:52:35.291Z,99764.05
2019-03-10T02:55:05.082Z,99770.16
2019-03-10T02:57:34.417Z,99772.44
2019-03-10T03:00:06.019Z,99770.30
2019-03-10T03:05:37.496Z,99768.23
2019-03-10T03:08:06.861Z,99757.47
2019-03-10T03:10:36.204Z,99755.22
2019-03-10T03:13:05.676Z,99757.70
2019-03-10T03:15:35.000Z,99752.73
2019-03-10T03:18:04.450Z,99753.20
2019-03-10T03:20:33.797Z,99762.41
2019-03-10T03:23:03.147Z,99758.08
2019-03-10T03:25:32.498Z,99755.74
2019-03-10T03:28:01.860Z,99752.28
2019-03-10T03:30:31.228Z,99764.59
2019-03-10T03:33:00.645Z,99768.83
2019-03-10T03:35:50.316Z,99782.06
2019-03-10T03:38:22.929Z,99785.09
2019-03-10T03:43:55.979Z,99782.84
2019-03-10T03:46:25.324Z,99781.47
2019-03-10T03:48:54.656Z,99777.11
2019-03-10T03:51:23.981Z,99782.26
2019-03-10T03:53:53.315Z,99779.58
2019-03-10T03:56:22.661Z,99780.92
2019-03-10T03:58:52.011Z,99775.48
2019-03-10T04:01:24.988Z,99775.77
2019-03-10T04:06:56.577Z,99778.85
2019-03-10T04:09:25.925Z,99762.53
2019-03-10T04:11:55.239Z,99768.19
2019-03-10T04:14:24.581Z,99767.38
2019-03-10T04:16:53.935Z,99775.68
2019-03-10T04:19:23.281Z,99782.63
2019-03-10T04:27:57.526Z,99796.55
2019-03-10T04:30:26.858Z,99790.16
2019-03-10T04:32:56.189Z,99788.37
2019-03-10T04:35:25.524Z,99786.28
2019-03-10T04:37:54.856Z,99785.05
2019-03-10T04:40:24.187Z,99782.45
2019-03-10T04:42:53.532Z,99792.19
2019-03-10T04:45:22.855Z,99795.02
2019-03-10T04:47:52.188Z,99799.55
2019-03-10T04:50:21.515Z,99796.30
2019-03-10T04:52:50.904Z,99809.86
2019-03-10T04:55:39.812Z,99813.32
2019-03-10T05:03:47.401Z,99813.69
2019-03-10T05:06:16.758Z,99818.76
2019-03-10T05:08:46.095Z,99809.16
2019-03-10T05:11:15.492Z,99803.80
2019-03-10T05:16:47.185Z,99809.30
2019-03-10T05:19:16.509Z,99805.23
2019-03-10T05:21:45.859Z,99811.52
2019-03-10T05:24:15.322Z,99810.69
2019-03-10T05:26:44.667Z,99804.70
2019-03-10T05:32:16.484Z,99817.81
2019-03-10T05:34:45.811Z,99826.00
2019-03-10T05:37:15.161Z,99831.80
2019-03-10T05:39:44.507Z,99831.27
2019-03-10T05:42:25.679Z,99837.62
2019-03-10T05:44:54.321Z,99841.98
2019-03-10T05:47:22.867Z,99838.80
2019-03-10T05:49:52.225Z,99834.64
2019-03-10T05:52:21.582Z,99837.70
2019-03-10T05:54:50.943Z,99838.00
2019-03-10T05:57:20.281Z,99841.03
2019-03-10T05:59:49.623Z,99849.00
2019-03-10T06:02:18.969Z,99846.28
2019-03-10T06:04:48.612Z,99841.08
2019-03-10T06:07:17.942Z,99847.57
2019-03-10T06:09:47.283Z,99856.20
2019-03-10T06:12:16.629Z,99859.05
2019-03-10T06:14:45.986Z,99860.81
2019-03-10T06:17:15.304Z,99854.85
2019-03-10T06:19:44.674Z,99859.97
2019-03-10T06:22:14.016Z,99870.48
2019-03-10T06:24:43.406Z,99876.28
2019-03-10T06:27:12.758Z,99880.47
2019-03-10T06:29:42.128Z,99895.07
2019-03-10T06:35:14.168Z,99891.94
2019-03-10T06:37:43.502Z,99902.80
2019-03-10T06:43:15.505Z,99891.36
2019-03-10T06:45:44.856Z,99900.91
2019-03-10T06:51:16.351Z,99905.16
2019-03-10T06:56:48.444Z,99917.28
2019-03-10T06:59:17.757Z,99917.34
2019-03-10T07:01:59.253Z,99926.13
2019-03-10T07:04:27.913Z,99919.03
2019-03-10T07:06:57.297Z,99920.05
2019-03-10T07:09:26.656Z,99913.43
2019-03-10T07:11:56.007Z,99921.62
2019-03-10T07:14:25.335Z,99922.45
2019-03-10T07:19:56.452Z,99932.44
2019-03-10T07:22:25.810Z,99925.03
2019-03-10T07:24:55.144Z,99941.48
2019-03-10T07:30:39.855Z,99930.74
2019-03-10T07:33:24.479Z,99927.27
2019-03-10T07:36:13.260Z,99921.69
2019-03-10T07:38:48.412Z,99920.13
2019-03-10T07:41:33.337Z,99921.11
2019-03-10T07:44:08.107Z,99924.14
2019-03-10T07:46:56.308Z,99920.30
2019-03-10T07:49:45.228Z,99925.02
2019-03-10T07:52:34.077Z,99925.28
2019-03-10T07:55:15.103Z,99931.47
2019-03-10T07:58:03.210Z,99933.32
2019-03-10T08:00:52.077Z,99938.29
2019-03-10T08:06:34.548Z,99949.63
2019-03-10T08:11:58.736Z,99946.06
2019-03-10T08:17:49.696Z,99955.28
2019-03-10T08:20:37.709Z,99950.32
2019-03-10T08:23:26.530Z,99958.20
2019-03-10T08:29:17.618Z,99961.87
2019-03-10T08:32:06.405Z,99947.49
2019-03-10T08:34:54.494Z,99949.61
2019-03-10T08:37:30.747Z,99956.94
2019-03-10T08:40:18.736Z,99976.79
2019-03-10T08:43:06.874Z,99971.52
2019-03-10T08:48:42.730Z,99972.25
2019-03-10T08:51:31.502Z,99971.66
2019-03-10T08:54:20.313Z,99966.47
2019-03-10T08:57:09.099Z,99968.47
2019-03-10T08:59:57.101Z,99978.92
2019-03-10T09:02:45.963Z,99976.27
2019-03-10T09:05:34.750Z,99970.41
2019-03-10T09:08:22.843Z,99964.13
2019-03-10T09:11:10.846Z,99965.23
2019-03-10T09:13:58.938Z,99969.11
2019-03-10T09:16:47.943Z,99970.89
2019-03-10T09:19:35.947Z,99970.69
2019-03-10T09:22:24.019Z,99963.23
2019-03-10T09:25:12.005Z,99970.74
2019-03-10T09:27:52.931Z,99967.02
2019-03-10T09:30:41.739Z,99957.02
2019-03-10T09:33:29.822Z,99954.84
2019-03-10T09:36:17.931Z,99958.61
2019-03-10T09:39:06.728Z,99951.53
2019-03-10T09:41:54.817Z,99953.77
2019-03-10T09:44:43.663Z,99947.59
2019-03-10T09:47:32.501Z,99944.67
2019-03-10T09:50:11.804Z,99938.55
2019-03-10T09:53:00.648Z,99944.33
2019-03-10T09:55:49.439Z,99950.52
2019-03-10T09:58:32.237Z,99939.22
2019-03-10T10:01:21.044Z,99935.68
2019-03-10T10:04:09.866Z,99923.18
2019-03-10T10:06:57.974Z,99917.64
2019-03-10T10:12:48.769Z,99906.68
2019-03-10T10:15:37.552Z,99899.89
2019-03-10T10:18:26.448Z,99905.22
2019-03-10T10:21:14.431Z,99909.58
2019-03-10T10:24:03.233Z,99905.64
2019-03-10T10:26:52.131Z,99899.46
2019-03-10T10:29:40.937Z,99899.66
2019-03-10T10:32:28.979Z,99901.59
2019-03-10T10:35:17.927Z,99901.37
2019-03-10T10:41:09.021Z,99892.03
2019-03-10T10:43:57.929Z,99890.30
2019-03-10T10:49:49.255Z,99871.29
2019-03-10T10:52:38.080Z,99871.95
2019-03-10T10:58:28.405Z,99854.14
2019-03-10T11:01:16.637Z,99837.81
2019-03-10T11:07:07.666Z,99806.14
2019-03-10T11:09:56.564Z,99796.36
2019-03-10T11:12:45.351Z,99789.16
2019-03-10T11:15:33.442Z,99777.11
2019-03-10T11:18:22.284Z,99769.09
2019-03-10T11:21:10.424Z,99754.80
2019-03-10T11:23:58.426Z,99756.64
2019-03-10T11:26:47.223Z,99752.02
2019-03-10T11:32:38.184Z,99753.20
2019-03-10T11:35:22.477Z,99746.09
2019-03-10T11:38:11.326Z,99754.83
2019-03-10T11:41:00.124Z,99751.75
2019-03-10T11:43:48.223Z,99737.56
2019-03-10T11:46:37.430Z,99750.02
2019-03-10T11:49:26.243Z,99744.31
2019-03-10T11:52:02.216Z,99745.19
2019-03-10T11:54:50.319Z,99738.19
2019-03-10T11:57:38.326Z,99736.53
2019-03-10T12:03:29.678Z,99730.67
2019-03-10T12:06:17.782Z,99728.63
2019-03-10T12:09:05.909Z,99730.52
2019-03-10T12:11:35.265Z,99712.69
2019-03-10T12:14:04.823Z,99704.16
2019-03-10T12:16:34.176Z,99710.02
2019-03-10T12:19:03.550Z,99703.80
2019-03-10T12:21:32.862Z,99698.30
2019-03-10T12:24:02.269Z,99689.17
2019-03-10T12:26:31.626Z,99698.61
2019-03-10T12:29:00.983Z,99691.72
2019-03-10T12:31:30.333Z,99693.42
2019-03-10T12:33:59.682Z,99690.65
2019-03-10T12:36:29.054Z,99676.55
2019-03-10T12:38:58.347Z,99678.41
2019-03-10T12:41:27.703Z,99684.38
2019-03-10T12:43:57.036Z,99683.35
2019-03-10T12:46:26.374Z,99681.66
2019-03-10T12:48:55.712Z,99684.12
2019-03-10T12:51:25.039Z,99676.00
2019-03-10T12:53:54.387Z,99679.75
2019-03-10T12:56:23.785Z,99677.30
2019-03-10T12:58:53.153Z,99676.81
2019-03-10T13:01:22.558Z,99672.59
2019-03-10T13:03:58.952Z,99672.80
2019-03-10T13:06:41.958Z,99668.58
2019-03-10T13:09:11.521Z,99661.84
2019-03-10T13:11:41.073Z,99659.50
2019-03-10T13:14:10.470Z,99654.38
2019-03-10T13:16:39.924Z,99652.34
2019-03-10T13:19:09.351Z,99652.98
2019-03-10T13:21:38.724Z,99637.70
2019-03-10T13:24:10.225Z,99636.16
2019-03-10T13:26:41.556Z,99635.95
2019-03-10T13:29:28.888Z,99635.73
2019-03-10T13:31:58.356Z,99626.27
2019-03-10T13:34:27.876Z,99620.13
2019-03-10T13:36:57.228Z,99613.97
2019-03-10T13:39:26.579Z,99611.14
2019-03-10T13:41:55.920Z,99601.52
2019-03-10T13:44:25.384Z,99593.61
2019-03-10T13:46:54.727Z,99592.75
2019-03-10T13:49:24.039Z,99588.27
2019-03-10T13:51:53.411Z,99590.89
2019-03-10T13:54:22.740Z,99584.70
2019-03-10T13:56:52.102Z,99586.31
2019-03-10T13:59:20.711Z,99582.73
2019-03-10T14:01:50.050Z,99568.25
2019-03-10T14:04:19.376Z,99567.13
2019-03-10T14:06:48.816Z,99569.16
2019-03-10T14:09:18.121Z,99564.18
2019-03-10T14:11:47.492Z,99569.16
2019-03-10T14:14:16.828Z,99562.91
2019-03-10T14:16:46.192Z,99566.48
2019-03-10T14:19:15.512Z,99563.48
2019-03-10T14:21:44.964Z,99567.22
2019-03-10T14:24:14.504Z,99564.33
2019-03-10T14:26:43.041Z,99567.06
2019-03-10T14:29:12.409Z,99564.81
2019-03-10T14:31:41.753Z,99562.91
2019-03-10T14:34:11.204Z,99549.77
2019-03-10T14:36:40.542Z,99545.00
2019-03-10T14:39:21.364Z,99544.30
2019-03-10T14:41:49.915Z,99532.77
2019-03-10T14:44:19.266Z,99523.76
2019-03-10T14:46:48.617Z,99526.30
2019-03-10T14:49:23.064Z,99517.99
2019-03-10T14:52:07.179Z,99508.80
2019-03-10T14:54:36.502Z,99502.82
2019-03-10T14:57:05.825Z,99501.80
2019-03-10T14:59:35.179Z,99498.70
2019-03-10T15:02:04.708Z,99494.11
2019-03-10T15:04:34.069Z,99486.05
2019-03-10T15:07:03.498Z,99481.25
2019-03-10T15:09:32.984Z,99476.49
2019-03-10T15:12:02.305Z,99471.91
2019-03-10T15:14:31.656Z,99457.80
2019-03-10T15:17:02.240Z,99453.16
2019-03-10T15:19:50.297Z,99450.22
2019-03-10T15:22:19.619Z,99445.52
2019-03-10T15:24:48.953Z,99445.42
2019-03-10T15:27:23.320Z,99445.79
2019-03-10T15:30:11.458Z,99447.24
2019-03-10T15:32:39.991Z,99438.20
2019-03-10T15:35:09.529Z,99436.54
2019-03-10T15:37:38.882Z,99432.84
2019-03-10T15:40:09.673Z,99437.55
2019-03-10T15:42:38.208Z,99438.09
2019-03-10T15:45:08.568Z,99438.73
2019-03-10T15:47:37.209Z,99443.52
2019-03-10T15:50:10.363Z,99440.97
2019-03-10T15:52:39.820Z,99441.17
2019-03-10T15:55:09.330Z,99438.59
2019-03-10T15:57:49.352Z,99431.62
2019-03-10T16:00:40.211Z,99435.54
2019-03-10T16:03:08.955Z,99437.58
2019-03-10T16:05:38.335Z,99456.08
2019-03-10T16:08:07.684Z,99451.58
2019-03-10T16:10:37.061Z,99448.03
2019-03-10T16:13:06.415Z,99455.13
2019-03-10T16:15:35.755Z,99450.52
2019-03-10T16:18:05.129Z,99449.88
2019-03-10T16:20:33.826Z,99444.40
2019-03-10T16:23:03.255Z,99437.08
2019-03-10T16:25:32.935Z,99435.49
2019-03-10T16:28:02.326Z,99439.39
2019-03-10T16:30:31.668Z,99443.02
2019-03-10T16:33:01.051Z,99444.13
2019-03-10T16:35:30.422Z,99447.64
2019-03-10T16:37:59.758Z,99446.67
2019-03-10T16:40:29.117Z,99440.94
2019-03-10T16:42:58.467Z,99438.81
2019-03-10T16:45:27.956Z,99439.84
2019-03-10T16:47:57.907Z,99440.55
2019-03-10T16:50:26.552Z,99429.27
2019-03-10T16:53:07.405Z,99428.48
2019-03-10T16:55:36.227Z,99427.44
2019-03-10T16:58:05.816Z,99427.80
2019-03-10T17:00:35.324Z,99423.72
2019-03-10T17:03:04.991Z,99414.77
2019-03-10T17:05:33.754Z,99406.62
2019-03-10T17:08:02.578Z,99406.98
2019-03-10T17:10:31.995Z,99401.75
2019-03-10T17:13:01.626Z,99397.53
2019-03-10T17:15:31.264Z,99390.28
2019-03-10T17:18:00.899Z,99392.02
2019-03-10T17:20:30.258Z,99384.25
2019-03-10T17:22:59.590Z,99379.91
2019-03-10T17:25:28.932Z,99382.09
2019-03-10T17:27:58.502Z,99374.69
2019-03-10T17:30:27.956Z,99378.77
2019-03-10T17:32:57.459Z,99375.77
2019-03-10T17:35:26.963Z,99372.28
2019-03-10T17:37:56.363Z,99367.97
2019-03-10T17:40:25.894Z,99364.36
2019-03-10T17:42:55.421Z,99367.02
2019-03-10T17:45:24.919Z,99360.01
2019-03-10T17:47:54.267Z,99358.52
2019-03-10T17:50:23.709Z,99346.19
2019-03-10T17:52:53.381Z,99343.28
2019-03-10T17:55:22.911Z,99347.26
2019-03-10T18:00:54.643Z,99346.61
2019-03-10T18:03:24.050Z,99336.21
2019-03-10T18:05:53.588Z,99332.94
2019-03-10T18:11:24.969Z,99335.16
2019-03-10T18:13:54.383Z,99327.34
2019-03-10T18:16:23.823Z,99322.72
2019-03-10T18:18:53.273Z,99323.67
2019-03-10T18:21:22.679Z,99320.47
2019-03-10T18:23:52.213Z,99322.34
2019-03-10T18:26:21.598Z,99323.25
2019-03-10T18:28:51.121Z,99318.75
2019-03-10T18:31:20.578Z,99316.53
2019-03-10T18:33:50.067Z,99312.31
2019-03-10T18:36:31.043Z,99316.48
2019-03-10T18:38:59.759Z,99312.87
2019-03-10T18:41:29.261Z,99313.73
2019-03-10T18:43:58.650Z,99309.50
2019-03-10T18:46:28.029Z,99300.35
2019-03-10T18:48:57.733Z,99294.48
2019-03-10T18:51:27.080Z,99297.88
2019-03-10T18:53:56.455Z,99297.13
2019-03-10T18:56:25.810Z,99295.18
2019-03-10T18:58:55.157Z,99293.77
2019-03-10T19:01:24.504Z,99287.98
2019-03-10T19:03:53.836Z,99287.27
2019-03-10T19:06:23.284Z,99282.89
2019-03-10T19:08:52.769Z,99287.36
2019-03-10T19:11:22.307Z,99277.48
2019-03-10T19:13:51.803Z,99277.58
2019-03-10T19:16:21.223Z,99280.81
2019-03-10T19:18:50.620Z,99282.13
2019-03-10T19:21:20.101Z,99274.08
2019-03-10T19:23:49.498Z,99282.84
2019-03-10T19:26:18.969Z,99272.89
2019-03-10T19:28:48.500Z,99283.18
2019-03-10T19:31:17.923Z,99283.18
2019-03-10T19:33:47.373Z,99273.85
2019-03-10T19:36:16.814Z,99278.53
2019-03-10T19:38:45.588Z,99278.06
2019-03-10T19:41:14.977Z,99273.27
2019-03-10T19:43:44.344Z,99272.18
2019-03-10T19:46:13.146Z,99264.12
2019-03-10T19:51:43.934Z,99263.64
2019-03-10T19:57:15.008Z,99257.11
2019-03-10T19:59:44.556Z,99254.11
2019-03-10T20:02:13.941Z,99253.36
2019-03-10T20:04:43.429Z,99244.82
2019-03-10T20:07:12.921Z,99244.20
2019-03-10T20:09:42.324Z,99246.38
2019-03-10T20:12:11.777Z,99241.83
2019-03-10T20:14:41.401Z,99232.77
2019-03-10T20:17:10.842Z,99234.20
2019-03-10T20:19:40.252Z,99231.69
2019-03-10T20:22:09.694Z,99236.04
2019-03-10T20:24:38.435Z,99234.09
2019-03-10T20:27:07.818Z,99223.59
2019-03-10T20:29:37.338Z,99225.63
2019-03-10T20:32:14.000Z,99215.48
2019-03-10T20:34:56.230Z,99224.44
2019-03-10T20:37:25.627Z,99219.64
2019-03-10T20:39:55.065Z,99214.67
2019-03-10T20:45:26.250Z,99208.89
2019-03-10T20:47:56.748Z,99211.53
2019-03-10T20:50:25.634Z,99216.73
2019-03-10T20:52:55.166Z,99217.48
2019-03-10T20:55:24.709Z,99206.01
2019-03-10T20:57:54.062Z,99192.76
2019-03-10T21:00:23.608Z,99202.52
2019-03-10T21:02:53.035Z,99204.45
2019-03-10T21:05:22.641Z,99205.04
2019-03-10T21:07:52.120Z,99200.84
2019-03-10T21:10:21.532Z,99193.73
2019-03-10T21:12:50.979Z,99202.78
2019-03-10T21:15:20.316Z,99196.50
2019-03-10T21:17:49.748Z,99191.31
2019-03-10T21:20:19.095Z,99183.34
2019-03-10T21:22:48.692Z,99170.34
2019-03-10T21:25:19.177Z,99176.33
2019-03-10T21:30:50.479Z,99166.83
2019-03-10T21:33:19.832Z,99164.69
2019-03-10T21:35:49.216Z,99162.38
2019-03-10T21:38:18.579Z,99160.83
2019-03-10T21:40:47.915Z,99149.75
2019-03-10T21:43:17.388Z,99157.94
2019-03-10T21:45:46.745Z,99153.47
2019-03-10T21:48:16.080Z,99156.14
2019-03-10T21:50:45.466Z,99150.31
2019-03-10T21:53:14.802Z,99154.55
2019-03-10T21:55:44.142Z,99150.23
2019-03-10T22:01:15.416Z,99153.73
2019-03-10T22:03:56.443Z,99157.57
2019-03-10T22:06:25.109Z,99151.20
2019-03-10T22:08:54.465Z,99148.19
2019-03-10T22:11:23.775Z,99149.38
2019-03-10T22:13:53.108Z,99151.68
2019-03-10T22:16:22.469Z,99152.73
2019-03-10T22:18:51.798Z,99142.98
2019-03-10T22:24:04.081Z,99143.47
2019-03-10T22:26:33.424Z,99143.98
2019-03-10T22:29:02.871Z,99142.14
2019-03-10T22:31:32.209Z,99138.77
2019-03-10T22:34:01.556Z,99140.22
2019-03-10T22:36:30.896Z,99130.72
2019-03-10T22:39:00.277Z,99127.34
2019-03-10T22:44:31.691Z,99127.57
2019-03-10T22:47:01.036Z,99127.34
2019-03-10T22:49:30.367Z,99127.05
2019-03-10T22:51:59.699Z,99127.62
2019-03-10T23:03:35.070Z,99123.25
2019-03-10T23:06:04.397Z,99121.89
2019-03-10T23:08:33.729Z,99121.66
2019-03-10T23:11:14.885Z,99121.48
2019-03-10T23:16:47.127Z,99116.88
2019-03-10T23:19:16.465Z,99111.60
2019-03-10T23:21:45.807Z,99111.84
2019-03-10T23:27:17.482Z,99104.07
2019-03-10T23:29:46.899Z,99104.76
2019-03-10T23:38:20.568Z,99107.57
2019-03-10T23:58:43.976Z,99112.32
